Prairie City, OR (97869)

11:04 PM PST on February 26, 2017 (GMT -0800)
Southern Prairie City | | Change Station
Active Advisory: Winter Weather Advisory

Elev 3553 ft 44.46 °N, 118.71 °W | Updated 30 seconds ago

Overcast
Overcast
20.4 °F
Feels Like 20 °F
N
0.0
Wind Variable Wind from ESE

Today
High -- | Low -- °F
--% Chance of Precip.
Yesterday
High -- | Low -- °F
Precip. -- in
Pressure 29.63 in
Visibility 10.0 miles
Clouds Mostly Cloudy 4700 ft
Windchill 20 °F
Dew Point 19 °F
Humidity 96%
Rainfall 0.00 in
Snow Depth Not available.
6:36 AM 5:39 PM
New Moon, 1% visible
METAR KGCD 270635Z AUTO 00000KT 10SM BKN047 M04/M06 A2963 RMK AO2 T10441060
Pressure 29.63 in
Visibility 10.0 miles
Clouds Mostly Cloudy 4700 ft
Windchill 20 °F
Dew Point 19 °F
Humidity 96%
Rainfall 0.00 in
Snow Depth Not available.
6:36 AM 5:39 PM
New Moon, 1% visible
METAR KGCD 270635Z AUTO 00000KT 10SM BKN047 M04/M06 A2963 RMK AO2 T10441060

Get Your Daily Forecast Email!

Thanks for signing up!

Be on the lookout for a verification email in your inbox.

You'll start receiving the daily forecast at 8 AM.

×

10-Day Weather Forecast

Almanac

Astronomy

Feb. 26, 2017 Rise Set
Actual Time
Civil Twilight
Nautical Twilight
Astronomical Twilight
Moon
Length of Visible Light
Length of Day
Tomorrow will be .
, % of the Moon is Illuminated

Today's Extremes

State Highs State Lows

Community

WunderPhotos

Upload Photos

1,962,540 photos uploaded!

WunderBlog® & News

Nearby

Air Quality

  Air Quality AQ Index Pollutant
Not available.

Snow Depth

Station Depth Elevation

Earthquake Activity

City Distance Mag. Time & Date
Minimum magnitude displayed is 2.5.

Coastal Water Temperatures

Place Temperature

Stations

Nearby Weather Stations

Station Location Temp. Windchill Dew Point Humidity Wind Precip. Elev Updated Type
                   

Watches & Warnings

Winter Weather Advisory
Issued: 9:26 PM PST Feb. 26, 2017 – National Weather Service

... Winter Weather Advisory remains in effect until 4 am PST
Tuesday...

* snow accumulations... 3 to 6 inches.

* Timing... periods of snow showers will continue into Tuesday
morning.

* Web page: for a detailed view of the hazard area visit
http://www.Wrh.NOAA.Gov/map/?Wfo=pdt.

Precautionary/preparedness actions...

A Winter Weather Advisory for snow means that periods of snow
will cause primarily travel difficulties. Be prepared for snow
covered roads and limited visibilities... and use extra caution
while driving.